createdAt,value
2019-03-19T00:03:25.356Z,99589.91
2019-03-19T00:07:27.739Z,99593.88
2019-03-19T00:11:30.006Z,99599.74
2019-03-19T00:15:33.181Z,99596.87
2019-03-19T00:19:35.425Z,99599.52
2019-03-19T00:23:37.770Z,99597.00
2019-03-19T00:27:40.043Z,99605.94
2019-03-19T00:31:42.191Z,99608.27
2019-03-19T00:35:44.423Z,99609.50
2019-03-19T00:39:48.830Z,99599.84
2019-03-19T00:43:51.285Z,99604.25
2019-03-19T00:47:53.463Z,99605.17
2019-03-19T00:51:55.847Z,99611.40
2019-03-19T00:55:58.027Z,99604.83
2019-03-19T01:00:00.435Z,99618.70
2019-03-19T01:04:02.654Z,99620.40
2019-03-19T01:08:04.886Z,99620.28
2019-03-19T01:12:07.316Z,99621.13
2019-03-19T01:16:09.886Z,99620.48
2019-03-19T01:20:13.140Z,99628.64
2019-03-19T01:24:16.449Z,99629.67
2019-03-19T01:28:18.648Z,99635.98
2019-03-19T01:32:20.959Z,99633.05
2019-03-19T01:36:23.112Z,99636.53
2019-03-19T01:40:25.685Z,99638.42
2019-03-19T01:44:27.939Z,99643.09
2019-03-19T01:48:30.147Z,99654.58
2019-03-19T01:52:32.304Z,99651.75
2019-03-19T01:56:34.723Z,99656.81
2019-03-19T02:00:36.905Z,99656.43
2019-03-19T02:04:39.348Z,99653.80
2019-03-19T02:08:41.570Z,99653.42
2019-03-19T02:12:43.999Z,99654.92
2019-03-19T02:16:47.082Z,99659.05
2019-03-19T02:20:49.678Z,99662.88
2019-03-19T02:24:51.837Z,99666.28
2019-03-19T02:28:54.079Z,99673.41
2019-03-19T02:32:56.282Z,99667.22
2019-03-19T02:36:59.071Z,99678.39
2019-03-19T02:41:01.396Z,99682.12
2019-03-19T02:45:03.630Z,99683.57
2019-03-19T02:49:05.796Z,99681.13
2019-03-19T02:53:08.150Z,99680.98
2019-03-19T02:57:10.351Z,99673.94
2019-03-19T03:01:12.675Z,99676.25
2019-03-19T03:05:15.164Z,99680.58
2019-03-19T03:09:17.663Z,99678.80
2019-03-19T03:13:19.877Z,99679.85
2019-03-19T03:17:22.108Z,99689.14
2019-03-19T03:21:24.269Z,99690.93
2019-03-19T03:25:26.612Z,99696.45
2019-03-19T03:29:28.911Z,99695.98
2019-03-19T03:33:31.253Z,99693.83
2019-03-19T03:37:34.609Z,99701.09
2019-03-19T03:41:38.296Z,99707.03
2019-03-19T03:45:40.473Z,99704.48
2019-03-19T03:49:42.688Z,99727.05
2019-03-19T03:53:44.850Z,99728.09
2019-03-19T03:57:47.296Z,99731.66
2019-03-19T04:01:49.465Z,99731.45
2019-03-19T04:05:51.947Z,99731.75
2019-03-19T04:09:54.123Z,99744.61
2019-03-19T04:13:56.991Z,99748.13
2019-03-19T04:17:59.216Z,99747.28
2019-03-19T04:22:01.580Z,99752.55
2019-03-19T04:26:03.914Z,99757.80
2019-03-19T04:30:08.543Z,99761.36
2019-03-19T04:34:10.739Z,99764.58
2019-03-19T04:38:13.178Z,99768.60
2019-03-19T04:42:15.355Z,99770.88
2019-03-19T04:46:17.603Z,99776.48
2019-03-19T04:50:19.899Z,99782.06
2019-03-19T04:54:23.139Z,99788.91
2019-03-19T04:58:25.305Z,99795.13
2019-03-19T05:02:27.543Z,99805.25
2019-03-19T05:06:29.722Z,99813.35
2019-03-19T05:10:32.026Z,99814.45
2019-03-19T05:14:34.505Z,99812.31
2019-03-19T05:18:36.831Z,99813.14
2019-03-19T05:22:39.018Z,99821.14
2019-03-19T05:26:42.564Z,99822.06
2019-03-19T05:30:44.742Z,99823.45
2019-03-19T05:34:46.998Z,99829.00
2019-03-19T05:38:49.221Z,99829.92
2019-03-19T05:42:51.467Z,99831.23
2019-03-19T05:46:53.683Z,99832.94
2019-03-19T05:50:55.942Z,99839.89
2019-03-19T05:54:58.153Z,99844.97
2019-03-19T05:59:01.105Z,99839.89
2019-03-19T06:03:03.600Z,99856.30
2019-03-19T06:07:06.422Z,99860.16
2019-03-19T06:11:08.819Z,99857.07
2019-03-19T06:15:11.839Z,99864.95
2019-03-19T06:19:14.357Z,99866.36
2019-03-19T06:23:16.810Z,99872.83
2019-03-19T06:27:19.160Z,99877.34
2019-03-19T06:31:21.541Z,99876.30
2019-03-19T06:35:23.991Z,99870.86
2019-03-19T06:39:26.672Z,99873.05
2019-03-19T06:43:29.278Z,99877.55
2019-03-19T06:47:31.954Z,99881.98
2019-03-19T06:51:34.589Z,99883.77
2019-03-19T06:55:37.443Z,99887.34
2019-03-19T06:59:40.012Z,99888.56
2019-03-19T07:03:42.908Z,99892.98
2019-03-19T07:07:45.650Z,99902.29
2019-03-19T07:11:48.177Z,99910.55
2019-03-19T07:15:52.122Z,99920.69
2019-03-19T07:19:54.374Z,99929.52
2019-03-19T07:23:56.543Z,99933.75
2019-03-19T07:27:59.101Z,99938.98
2019-03-19T07:32:01.332Z,99940.77
2019-03-19T07:36:06.152Z,99938.67
2019-03-19T07:40:09.020Z,99953.62
2019-03-19T07:44:12.272Z,99958.22
2019-03-19T07:48:14.476Z,99952.64
2019-03-19T07:52:17.244Z,99959.83
2019-03-19T07:56:19.445Z,99968.16
2019-03-19T08:00:22.164Z,99974.42
2019-03-19T08:04:24.938Z,99976.20
2019-03-19T08:08:27.862Z,99983.61
2019-03-19T08:12:29.998Z,99990.82
2019-03-19T08:16:32.467Z,99989.45
2019-03-19T08:20:34.659Z,99991.97
2019-03-19T08:24:37.045Z,100001.67
2019-03-19T08:28:39.218Z,100001.16
2019-03-19T08:32:41.518Z,100007.29
2019-03-19T08:36:43.728Z,100011.61
2019-03-19T08:40:46.042Z,100024.74
2019-03-19T08:44:49.378Z,100029.37
2019-03-19T08:48:51.806Z,100038.44
2019-03-19T08:52:55.453Z,100040.44
2019-03-19T08:56:58.176Z,100043.52
2019-03-19T09:01:02.002Z,100048.20
2019-03-19T09:05:04.388Z,100047.23
2019-03-19T09:09:09.458Z,100049.23
2019-03-19T09:13:12.028Z,100055.80
2019-03-19T09:17:14.484Z,100067.17
2019-03-19T09:21:17.215Z,100071.97
2019-03-19T09:25:19.433Z,100072.49
2019-03-19T09:29:22.090Z,100077.23
2019-03-19T09:33:24.463Z,100085.39
2019-03-19T09:37:27.171Z,100100.11
2019-03-19T09:41:29.624Z,100095.71
2019-03-19T09:45:32.229Z,100111.67
2019-03-19T09:49:34.436Z,100120.84
2019-03-19T09:53:36.896Z,100117.01
2019-03-19T09:57:39.135Z,100124.46
2019-03-19T10:01:41.714Z,100125.22
2019-03-19T10:05:44.185Z,100128.56
2019-03-19T10:09:46.745Z,100141.95
2019-03-19T10:13:49.094Z,100143.36
2019-03-19T10:17:51.800Z,100155.05
2019-03-19T10:21:54.100Z,100158.73
2019-03-19T10:25:56.775Z,100173.06
2019-03-19T10:29:59.246Z,100174.38
2019-03-19T10:34:01.519Z,100178.25
2019-03-19T10:38:03.998Z,100184.25
2019-03-19T10:42:06.757Z,100190.73
2019-03-19T10:46:09.176Z,100195.42
2019-03-19T10:50:19.985Z,100193.83
2019-03-19T10:54:22.168Z,100198.25
2019-03-19T10:58:24.564Z,100198.13
2019-03-19T11:02:26.790Z,100209.92
2019-03-19T11:06:29.033Z,100216.52
2019-03-19T11:10:34.287Z,100221.53
2019-03-19T11:14:36.711Z,100218.31
2019-03-19T11:18:39.461Z,100224.50
2019-03-19T11:22:41.780Z,100231.38
2019-03-19T11:26:43.990Z,100240.95
2019-03-19T11:30:46.350Z,100246.48
2019-03-19T11:34:49.463Z,100253.50
2019-03-19T11:38:51.737Z,100252.75
2019-03-19T11:42:54.070Z,100258.64
2019-03-19T11:46:56.433Z,100263.55
2019-03-19T11:50:58.725Z,100258.40
2019-03-19T11:55:01.171Z,100264.42
2019-03-19T11:59:04.120Z,100276.17
2019-03-19T12:03:12.651Z,100280.41
2019-03-19T12:07:11.033Z,100281.75
2019-03-19T12:11:15.010Z,100280.25
2019-03-19T12:15:17.574Z,100290.00
2019-03-19T12:19:21.164Z,100293.09
2019-03-19T12:23:27.224Z,100297.09
2019-03-19T12:27:29.528Z,100309.06
2019-03-19T12:31:34.174Z,100308.02
2019-03-19T12:35:36.460Z,100321.48
2019-03-19T12:39:38.673Z,100324.77
2019-03-19T12:43:41.080Z,100331.45
2019-03-19T12:47:43.395Z,100331.92
2019-03-19T12:51:45.754Z,100333.08
2019-03-19T12:55:48.105Z,100326.88
2019-03-19T12:59:50.610Z,100337.33
2019-03-19T13:03:52.784Z,100346.66
2019-03-19T13:07:55.105Z,100353.05
2019-03-19T13:11:57.299Z,100359.37
2019-03-19T13:15:59.625Z,100367.48
2019-03-19T13:20:02.163Z,100366.98
2019-03-19T13:24:05.803Z,100378.91
2019-03-19T13:28:09.311Z,100381.92
2019-03-19T13:32:11.577Z,100378.33
2019-03-19T13:36:13.861Z,100398.30
2019-03-19T13:40:17.334Z,100404.70
2019-03-19T13:44:19.562Z,100413.70
2019-03-19T13:48:21.821Z,100411.17
2019-03-19T13:52:24.024Z,100418.06
2019-03-19T13:56:26.546Z,100430.73
2019-03-19T14:00:28.769Z,100428.39
2019-03-19T14:04:32.090Z,100444.63
2019-03-19T14:08:34.264Z,100448.95
2019-03-19T14:12:36.746Z,100454.16
2019-03-19T14:16:39.031Z,100453.59
2019-03-19T14:20:43.048Z,100463.19
2019-03-19T14:24:45.320Z,100471.50
2019-03-19T14:28:47.889Z,100480.26
2019-03-19T14:32:50.074Z,100475.54
2019-03-19T14:36:52.746Z,100486.02
2019-03-19T14:40:54.961Z,100486.95
2019-03-19T14:44:57.284Z,100498.45
2019-03-19T14:48:59.469Z,100504.59
2019-03-19T14:53:01.879Z,100521.11
2019-03-19T14:57:04.089Z,100530.70
2019-03-19T15:01:06.375Z,100531.13
2019-03-19T15:05:09.263Z,100538.64
2019-03-19T15:09:11.652Z,100549.91
2019-03-19T15:13:13.890Z,100558.95
2019-03-19T15:17:16.214Z,100559.58
2019-03-19T15:21:18.431Z,100570.69
2019-03-19T15:25:22.933Z,100575.06
2019-03-19T15:29:25.514Z,100585.38
2019-03-19T15:33:27.878Z,100594.42
2019-03-19T15:37:31.481Z,100596.83
2019-03-19T15:41:33.801Z,100609.26
2019-03-19T15:45:36.018Z,100620.72
2019-03-19T15:49:38.729Z,100618.72
2019-03-19T15:53:40.988Z,100632.06
2019-03-19T15:57:43.578Z,100635.95
2019-03-19T16:01:45.863Z,100648.83
2019-03-19T16:05:48.117Z,100655.52
2019-03-19T16:09:50.351Z,100658.77
2019-03-19T16:13:52.647Z,100669.54
2019-03-19T16:17:54.958Z,100666.70
2019-03-19T16:21:57.352Z,100676.15
2019-03-19T16:26:01.277Z,100686.08
2019-03-19T16:30:04.321Z,100695.52
2019-03-19T16:34:11.644Z,100691.43
2019-03-19T16:38:15.039Z,100713.52
2019-03-19T16:42:17.517Z,100715.45
2019-03-19T16:46:19.806Z,100723.19
2019-03-19T16:50:22.184Z,100721.27
2019-03-19T16:54:24.697Z,100725.83
2019-03-19T16:58:26.922Z,100735.11
2019-03-19T17:02:29.555Z,100733.58
2019-03-19T17:06:32.160Z,100740.77
2019-03-19T17:10:35.543Z,100744.01
2019-03-19T17:14:37.785Z,100758.18
2019-03-19T17:18:40.066Z,100756.06
2019-03-19T17:22:42.389Z,100760.62
2019-03-19T17:26:44.820Z,100773.92
2019-03-19T17:30:47.446Z,100779.28
2019-03-19T17:34:49.967Z,100781.05
2019-03-19T17:38:52.175Z,100789.95
2019-03-19T17:42:54.777Z,100802.25
2019-03-19T17:46:56.998Z,100812.02
2019-03-19T17:50:59.355Z,100820.42
2019-03-19T17:55:02.759Z,100823.14
2019-03-19T17:59:08.697Z,100837.76
2019-03-19T18:03:11.982Z,100852.23
2019-03-19T18:07:14.497Z,100856.31
2019-03-19T18:11:17.157Z,100861.27
2019-03-19T18:15:19.802Z,100876.20
2019-03-19T18:19:22.376Z,100887.58
2019-03-19T18:23:24.791Z,100893.98
2019-03-19T18:27:27.775Z,100895.94
2019-03-19T18:31:31.288Z,100911.36
2019-03-19T18:35:34.128Z,100914.95
2019-03-19T18:39:36.569Z,100920.75
2019-03-19T18:43:39.067Z,100920.89
2019-03-19T18:47:43.251Z,100924.97
2019-03-19T18:51:45.866Z,100926.88
2019-03-19T18:55:49.386Z,100929.09
2019-03-19T18:59:51.976Z,100935.81
2019-03-19T19:03:54.935Z,100938.92
2019-03-19T19:07:57.255Z,100945.63
2019-03-19T19:11:59.636Z,100949.17
2019-03-19T19:16:02.435Z,100952.80
2019-03-19T19:20:05.294Z,100956.33
2019-03-19T19:24:07.706Z,100960.81
2019-03-19T19:28:10.375Z,100959.95
2019-03-19T19:32:12.592Z,100960.00
2019-03-19T19:36:15.276Z,100965.80
2019-03-19T19:40:17.705Z,100973.77
2019-03-19T19:44:20.357Z,100977.30
2019-03-19T19:48:23.894Z,100977.44
2019-03-19T19:52:28.331Z,100985.91
2019-03-19T19:56:30.770Z,100992.48
2019-03-19T20:00:33.506Z,100990.38
2019-03-19T20:04:36.011Z,100996.55
2019-03-19T20:08:38.838Z,101002.71
2019-03-19T20:12:41.561Z,101013.72
2019-03-19T20:16:44.377Z,101011.99
2019-03-19T20:20:46.974Z,101008.95
2019-03-19T20:24:49.580Z,101019.09
2019-03-19T20:28:52.319Z,101022.18
2019-03-19T20:32:54.886Z,101023.17
2019-03-19T20:36:57.574Z,101026.70
2019-03-19T20:41:01.677Z,101020.58
2019-03-19T20:45:04.335Z,101021.48
2019-03-19T20:49:07.118Z,101022.02
2019-03-19T20:53:09.714Z,101028.59
2019-03-19T20:57:14.872Z,101034.76
2019-03-19T21:01:17.517Z,101043.13
2019-03-19T21:05:20.174Z,101040.09
2019-03-19T21:09:22.732Z,101045.80
2019-03-19T21:13:25.258Z,101043.30
2019-03-19T21:17:27.790Z,101053.93
2019-03-19T21:21:30.453Z,101054.84
2019-03-19T21:25:32.938Z,101063.25
2019-03-19T21:29:35.502Z,101056.23
2019-03-19T21:33:38.226Z,101064.69
2019-03-19T21:37:40.912Z,101067.84
2019-03-19T21:41:43.589Z,101066.57
2019-03-19T21:45:46.238Z,101070.51
2019-03-19T21:49:49.083Z,101069.73
2019-03-19T21:53:51.816Z,101073.26
2019-03-19T21:57:54.355Z,101085.16
2019-03-19T22:01:59.256Z,101091.31
2019-03-19T22:06:01.670Z,101103.14
2019-03-19T22:10:04.759Z,101103.26
2019-03-19T22:14:07.579Z,101108.52
2019-03-19T22:18:10.737Z,101115.53
2019-03-19T22:22:13.321Z,101135.31
2019-03-19T22:26:16.008Z,101133.59
2019-03-19T22:30:18.523Z,101124.84
2019-03-19T22:34:21.328Z,101123.19
2019-03-19T22:38:23.957Z,101131.11
2019-03-19T22:42:28.001Z,101132.09
2019-03-19T22:46:30.649Z,101136.10
2019-03-19T22:50:33.311Z,101139.70
2019-03-19T22:54:35.739Z,101141.92
2019-03-19T22:58:38.409Z,101145.86
2019-03-19T23:02:40.800Z,101145.52
2019-03-19T23:06:43.440Z,101134.20
2019-03-19T23:10:45.930Z,101138.62
2019-03-19T23:14:48.536Z,101142.26
2019-03-19T23:18:51.029Z,101151.04
2019-03-19T23:22:53.512Z,101146.23
2019-03-19T23:26:56.211Z,101151.97
2019-03-19T23:30:58.890Z,101149.84
2019-03-19T23:35:01.498Z,101152.23
2019-03-19T23:39:05.876Z,101162.55
2019-03-19T23:43:08.551Z,101163.97
2019-03-19T23:47:11.213Z,101172.36
2019-03-19T23:51:13.602Z,101164.48
2019-03-19T23:55:16.354Z,101164.52
2019-03-19T23:59:18.889Z,101164.59
